sensor_id;sensor_type;location;lat;lon;timestamp;temperature;humidity
14188;DHT22;7175;51.978;5.330;2022-09-03T00:00:10;18.40;72.70
14188;DHT22;7175;51.978;5.330;2022-09-03T00:02:43;18.40;72.50
14188;DHT22;7175;51.978;5.330;2022-09-03T00:05:20;18.40;72.80
14188;DHT22;7175;51.978;5.330;2022-09-03T00:07:56;18.30;73.30
14188;DHT22;7175;51.978;5.330;2022-09-03T00:10:33;18.30;73.40
14188;DHT22;7175;51.978;5.330;2022-09-03T00:13:06;18.30;73.40
14188;DHT22;7175;51.978;5.330;2022-09-03T00:15:35;18.20;74.70
14188;DHT22;7175;51.978;5.330;2022-09-03T00:18:11;18.20;74.20
14188;DHT22;7175;51.978;5.330;2022-09-03T00:20:45;18.10;74.30
14188;DHT22;7175;51.978;5.330;2022-09-03T00:23:27;18.20;74.40
14188;DHT22;7175;51.978;5.330;2022-09-03T00:26:13;18.20;74.60
14188;DHT22;7175;51.978;5.330;2022-09-03T00:28:48;18.10;75.60
14188;DHT22;7175;51.978;5.330;2022-09-03T00:31:23;18.10;75.00
14188;DHT22;7175;51.978;5.330;2022-09-03T00:33:57;18.10;75.40
14188;DHT22;7175;51.978;5.330;2022-09-03T00:36:32;18.10;75.90
14188;DHT22;7175;51.978;5.330;2022-09-03T00:39:02;18.10;76.10
14188;DHT22;7175;51.978;5.330;2022-09-03T00:41:35;18.20;75.90
14188;DHT22;7175;51.978;5.330;2022-09-03T00:44:28;18.20;75.80
14188;DHT22;7175;51.978;5.330;2022-09-03T00:47:07;18.10;76.30
14188;DHT22;7175;51.978;5.330;2022-09-03T00:49:45;18.10;76.60
14188;DHT22;7175;51.978;5.330;2022-09-03T00:52:23;18.20;76.50
14188;DHT22;7175;51.978;5.330;2022-09-03T00:55:04;18.10;76.50
14188;DHT22;7175;51.978;5.330;2022-09-03T00:57:42;18.20;76.60
14188;DHT22;7175;51.978;5.330;2022-09-03T01:00:17;18.20;76.80
14188;DHT22;7175;51.978;5.330;2022-09-03T01:02:56;18.10;76.90
14188;DHT22;7175;51.978;5.330;2022-09-03T01:05:41;18.10;77.10
14188;DHT22;7175;51.978;5.330;2022-09-03T01:08:30;18.10;77.10
14188;DHT22;7175;51.978;5.330;2022-09-03T01:11:10;18.10;77.60
14188;DHT22;7175;51.978;5.330;2022-09-03T01:13:50;18.10;77.60
14188;DHT22;7175;51.978;5.330;2022-09-03T01:16:27;18.00;77.90
14188;DHT22;7175;51.978;5.330;2022-09-03T01:19:04;18.10;77.40
14188;DHT22;7175;51.978;5.330;2022-09-03T01:21:53;18.20;77.20
14188;DHT22;7175;51.978;5.330;2022-09-03T01:24:43;18.20;77.40
14188;DHT22;7175;51.978;5.330;2022-09-03T01:27:24;18.20;77.40
14188;DHT22;7175;51.978;5.330;2022-09-03T01:30:03;18.20;77.50
14188;DHT22;7175;51.978;5.330;2022-09-03T01:32:39;18.20;77.50
14188;DHT22;7175;51.978;5.330;2022-09-03T01:35:18;18.20;77.30
14188;DHT22;7175;51.978;5.330;2022-09-03T01:38:00;18.20;77.50
14188;DHT22;7175;51.978;5.330;2022-09-03T01:40:36;18.10;77.70
14188;DHT22;7175;51.978;5.330;2022-09-03T01:43:21;18.10;77.80
14188;DHT22;7175;51.978;5.330;2022-09-03T01:45:54;18.10;77.70
14188;DHT22;7175;51.978;5.330;2022-09-03T01:48:41;18.10;78.00
14188;DHT22;7175;51.978;5.330;2022-09-03T01:51:19;18.00;78.00
14188;DHT22;7175;51.978;5.330;2022-09-03T01:54:12;18.00;78.50
14188;DHT22;7175;51.978;5.330;2022-09-03T01:57:14;17.90;78.80
14188;DHT22;7175;51.978;5.330;2022-09-03T02:00:06;17.90;78.90
14188;DHT22;7175;51.978;5.330;2022-09-03T02:02:38;17.80;79.30
14188;DHT22;7175;51.978;5.330;2022-09-03T02:05:12;17.80;79.50
14188;DHT22;7175;51.978;5.330;2022-09-03T02:07:45;17.80;79.80
14188;DHT22;7175;51.978;5.330;2022-09-03T02:10:22;17.70;79.80
14188;DHT22;7175;51.978;5.330;2022-09-03T02:12:56;17.70;80.40
14188;DHT22;7175;51.978;5.330;2022-09-03T02:15:27;17.70;80.20
14188;DHT22;7175;51.978;5.330;2022-09-03T02:18:02;17.60;80.30
14188;DHT22;7175;51.978;5.330;2022-09-03T02:20:36;17.60;80.60
14188;DHT22;7175;51.978;5.330;2022-09-03T02:23:06;17.60;80.70
14188;DHT22;7175;51.978;5.330;2022-09-03T02:25:37;17.60;81.10
14188;DHT22;7175;51.978;5.330;2022-09-03T02:28:06;17.60;81.60
14188;DHT22;7175;51.978;5.330;2022-09-03T02:30:44;17.50;81.50
14188;DHT22;7175;51.978;5.330;2022-09-03T02:33:16;17.50;81.40
14188;DHT22;7175;51.978;5.330;2022-09-03T02:35:45;17.50;82.00
14188;DHT22;7175;51.978;5.330;2022-09-03T02:38:22;17.40;82.40
14188;DHT22;7175;51.978;5.330;2022-09-03T02:40:52;17.40;82.90
14188;DHT22;7175;51.978;5.330;2022-09-03T02:43:24;17.30;83.40
14188;DHT22;7175;51.978;5.330;2022-09-03T02:45:58;17.20;83.70
14188;DHT22;7175;51.978;5.330;2022-09-03T02:48:30;17.20;84.00
14188;DHT22;7175;51.978;5.330;2022-09-03T02:50:58;17.20;84.20
14188;DHT22;7175;51.978;5.330;2022-09-03T02:53:27;17.10;84.60
14188;DHT22;7175;51.978;5.330;2022-09-03T02:55:57;17.10;84.80
14188;DHT22;7175;51.978;5.330;2022-09-03T02:58:26;17.10;84.60
14188;DHT22;7175;51.978;5.330;2022-09-03T03:00:56;17.10;85.10
14188;DHT22;7175;51.978;5.330;2022-09-03T03:03:24;17.00;85.50
14188;DHT22;7175;51.978;5.330;2022-09-03T03:05:55;17.00;85.50
14188;DHT22;7175;51.978;5.330;2022-09-03T03:08:27;17.00;85.70
14188;DHT22;7175;51.978;5.330;2022-09-03T03:10:57;17.00;86.00
14188;DHT22;7175;51.978;5.330;2022-09-03T03:13:27;17.00;85.80
14188;DHT22;7175;51.978;5.330;2022-09-03T03:15:59;17.00;86.00
14188;DHT22;7175;51.978;5.330;2022-09-03T03:18:29;17.00;85.70
14188;DHT22;7175;51.978;5.330;2022-09-03T03:21:03;17.00;85.90
14188;DHT22;7175;51.978;5.330;2022-09-03T03:23:32;17.00;85.90
14188;DHT22;7175;51.978;5.330;2022-09-03T03:26:01;17.10;86.00
14188;DHT22;7175;51.978;5.330;2022-09-03T03:28:30;17.00;86.30
14188;DHT22;7175;51.978;5.330;2022-09-03T03:31:04;17.00;86.70
14188;DHT22;7175;51.978;5.330;2022-09-03T03:33:34;16.90;87.00
14188;DHT22;7175;51.978;5.330;2022-09-03T03:36:08;17.00;86.90
14188;DHT22;7175;51.978;5.330;2022-09-03T03:38:38;16.90;87.10
14188;DHT22;7175;51.978;5.330;2022-09-03T03:41:07;17.00;87.10
14188;DHT22;7175;51.978;5.330;2022-09-03T03:43:35;17.00;87.60
14188;DHT22;7175;51.978;5.330;2022-09-03T03:46:05;17.00;86.70
14188;DHT22;7175;51.978;5.330;2022-09-03T03:48:33;17.00;86.80
14188;DHT22;7175;51.978;5.330;2022-09-03T03:51:03;17.00;86.90
14188;DHT22;7175;51.978;5.330;2022-09-03T03:53:35;17.00;87.10
14188;DHT22;7175;51.978;5.330;2022-09-03T03:56:06;16.90;87.00
14188;DHT22;7175;51.978;5.330;2022-09-03T03:58:41;16.90;87.30
14188;DHT22;7175;51.978;5.330;2022-09-03T04:01:12;16.90;87.60
14188;DHT22;7175;51.978;5.330;2022-09-03T04:03:42;16.90;87.70
14188;DHT22;7175;51.978;5.330;2022-09-03T04:06:13;16.90;87.60
14188;DHT22;7175;51.978;5.330;2022-09-03T04:08:43;16.90;87.80
14188;DHT22;7175;51.978;5.330;2022-09-03T04:11:15;16.90;87.70
14188;DHT22;7175;51.978;5.330;2022-09-03T04:13:46;16.80;87.80
14188;DHT22;7175;51.978;5.330;2022-09-03T04:16:17;16.80;88.00
14188;DHT22;7175;51.978;5.330;2022-09-03T04:18:46;16.70;88.20
14188;DHT22;7175;51.978;5.330;2022-09-03T04:21:18;16.80;88.40
14188;DHT22;7175;51.978;5.330;2022-09-03T04:23:49;16.70;88.20
14188;DHT22;7175;51.978;5.330;2022-09-03T04:26:20;16.70;88.20
14188;DHT22;7175;51.978;5.330;2022-09-03T04:28:48;16.70;88.60
14188;DHT22;7175;51.978;5.330;2022-09-03T04:31:18;16.60;88.80
14188;DHT22;7175;51.978;5.330;2022-09-03T04:33:52;16.60;88.80
14188;DHT22;7175;51.978;5.330;2022-09-03T04:36:22;16.60;89.00
14188;DHT22;7175;51.978;5.330;2022-09-03T04:38:53;16.60;89.40
14188;DHT22;7175;51.978;5.330;2022-09-03T04:41:24;16.50;89.80
14188;DHT22;7175;51.978;5.330;2022-09-03T04:43:55;16.50;90.00
14188;DHT22;7175;51.978;5.330;2022-09-03T04:46:26;16.50;90.20
14188;DHT22;7175;51.978;5.330;2022-09-03T04:49:00;16.40;90.10
14188;DHT22;7175;51.978;5.330;2022-09-03T04:51:30;16.40;90.20
14188;DHT22;7175;51.978;5.330;2022-09-03T04:54:04;16.40;90.30
14188;DHT22;7175;51.978;5.330;2022-09-03T04:56:34;16.40;90.30
14188;DHT22;7175;51.978;5.330;2022-09-03T04:59:04;16.40;90.40
14188;DHT22;7175;51.978;5.330;2022-09-03T05:01:35;16.30;90.40
14188;DHT22;7175;51.978;5.330;2022-09-03T05:04:07;16.30;90.40
14188;DHT22;7175;51.978;5.330;2022-09-03T05:06:36;16.30;90.40
14188;DHT22;7175;51.978;5.330;2022-09-03T05:09:06;16.30;90.20
14188;DHT22;7175;51.978;5.330;2022-09-03T05:11:35;16.30;90.20
14188;DHT22;7175;51.978;5.330;2022-09-03T05:14:05;16.30;90.30
14188;DHT22;7175;51.978;5.330;2022-09-03T05:16:38;16.30;90.40
14188;DHT22;7175;51.978;5.330;2022-09-03T05:19:08;16.30;90.40
14188;DHT22;7175;51.978;5.330;2022-09-03T05:21:44;16.30;90.40
14188;DHT22;7175;51.978;5.330;2022-09-03T05:24:15;16.30;90.30
14188;DHT22;7175;51.978;5.330;2022-09-03T05:26:46;16.30;90.40
14188;DHT22;7175;51.978;5.330;2022-09-03T05:29:24;16.30;90.50
14188;DHT22;7175;51.978;5.330;2022-09-03T05:31:55;16.30;90.50
14188;DHT22;7175;51.978;5.330;2022-09-03T05:34:27;16.30;90.60
14188;DHT22;7175;51.978;5.330;2022-09-03T05:36:56;16.30;90.50
14188;DHT22;7175;51.978;5.330;2022-09-03T05:39:26;16.40;90.40
14188;DHT22;7175;51.978;5.330;2022-09-03T05:41:54;16.40;90.50
14188;DHT22;7175;51.978;5.330;2022-09-03T05:44:22;16.40;90.60
14188;DHT22;7175;51.978;5.330;2022-09-03T05:46:52;16.40;90.50
14188;DHT22;7175;51.978;5.330;2022-09-03T05:49:20;16.50;90.60
14188;DHT22;7175;51.978;5.330;2022-09-03T05:51:48;16.50;90.70
14188;DHT22;7175;51.978;5.330;2022-09-03T05:54:16;16.50;90.60
14188;DHT22;7175;51.978;5.330;2022-09-03T05:56:54;16.50;90.60
14188;DHT22;7175;51.978;5.330;2022-09-03T05:59:22;16.60;90.50
14188;DHT22;7175;51.978;5.330;2022-09-03T06:01:51;16.70;90.40
14188;DHT22;7175;51.978;5.330;2022-09-03T06:04:26;16.70;90.30
14188;DHT22;7175;51.978;5.330;2022-09-03T06:06:55;16.70;90.20
14188;DHT22;7175;51.978;5.330;2022-09-03T06:09:24;16.80;90.10
14188;DHT22;7175;51.978;5.330;2022-09-03T06:11:54;16.80;90.00
14188;DHT22;7175;51.978;5.330;2022-09-03T06:14:24;16.80;90.00
14188;DHT22;7175;51.978;5.330;2022-09-03T06:16:52;16.80;90.20
14188;DHT22;7175;51.978;5.330;2022-09-03T06:19:21;16.80;90.20
14188;DHT22;7175;51.978;5.330;2022-09-03T06:21:49;16.90;90.30
14188;DHT22;7175;51.978;5.330;2022-09-03T06:24:19;17.10;90.20
14188;DHT22;7175;51.978;5.330;2022-09-03T06:26:56;17.20;90.10
14188;DHT22;7175;51.978;5.330;2022-09-03T06:29:26;17.20;90.10
14188;DHT22;7175;51.978;5.330;2022-09-03T06:31:54;17.30;88.80
14188;DHT22;7175;51.978;5.330;2022-09-03T06:34:23;17.50;87.90
14188;DHT22;7175;51.978;5.330;2022-09-03T06:36:54;17.50;87.60
14188;DHT22;7175;51.978;5.330;2022-09-03T06:39:25;17.60;87.80
14188;DHT22;7175;51.978;5.330;2022-09-03T06:41:56;17.70;88.50
14188;DHT22;7175;51.978;5.330;2022-09-03T06:44:29;17.80;86.60
14188;DHT22;7175;51.978;5.330;2022-09-03T06:47:00;17.80;86.40
14188;DHT22;7175;51.978;5.330;2022-09-03T06:49:37;17.80;86.20
14188;DHT22;7175;51.978;5.330;2022-09-03T06:52:13;18.00;86.10
14188;DHT22;7175;51.978;5.330;2022-09-03T06:54:42;18.10;85.20
14188;DHT22;7175;51.978;5.330;2022-09-03T06:57:12;18.10;84.60
14188;DHT22;7175;51.978;5.330;2022-09-03T06:59:45;18.20;84.40
14188;DHT22;7175;51.978;5.330;2022-09-03T07:02:33;18.40;84.60
14188;DHT22;7175;51.978;5.330;2022-09-03T07:05:12;18.50;83.70
14188;DHT22;7175;51.978;5.330;2022-09-03T07:07:40;18.60;83.50
14188;DHT22;7175;51.978;5.330;2022-09-03T07:10:17;18.60;83.10
14188;DHT22;7175;51.978;5.330;2022-09-03T07:12:54;18.70;82.80
14188;DHT22;7175;51.978;5.330;2022-09-03T07:15:41;18.90;82.10
14188;DHT22;7175;51.978;5.330;2022-09-03T07:24:05;19.10;80.70
14188;DHT22;7175;51.978;5.330;2022-09-03T07:26:54;19.20;80.40
14188;DHT22;7175;51.978;5.330;2022-09-03T07:29:27;19.30;80.20
14188;DHT22;7175;51.978;5.330;2022-09-03T07:32:02;19.50;80.00
14188;DHT22;7175;51.978;5.330;2022-09-03T07:34:32;19.50;79.20
14188;DHT22;7175;51.978;5.330;2022-09-03T07:37:12;19.50;78.90
14188;DHT22;7175;51.978;5.330;2022-09-03T07:39:42;19.70;79.20
14188;DHT22;7175;51.978;5.330;2022-09-03T07:42:27;20.00;77.80
14188;DHT22;7175;51.978;5.330;2022-09-03T07:44:58;19.80;76.00
14188;DHT22;7175;51.978;5.330;2022-09-03T07:47:31;19.80;75.90
14188;DHT22;7175;51.978;5.330;2022-09-03T07:50:30;19.90;75.90
14188;DHT22;7175;51.978;5.330;2022-09-03T07:53:02;20.00;74.30
14188;DHT22;7175;51.978;5.330;2022-09-03T07:55:37;19.80;74.70
14188;DHT22;7175;51.978;5.330;2022-09-03T07:58:06;19.90;74.40
14188;DHT22;7175;51.978;5.330;2022-09-03T08:00:35;19.90;74.90
14188;DHT22;7175;51.978;5.330;2022-09-03T08:03:05;20.10;74.60
14188;DHT22;7175;51.978;5.330;2022-09-03T08:05:35;20.10;74.40
14188;DHT22;7175;51.978;5.330;2022-09-03T08:08:04;20.20;73.80
14188;DHT22;7175;51.978;5.330;2022-09-03T08:10:35;20.20;74.10
14188;DHT22;7175;51.978;5.330;2022-09-03T08:13:05;20.30;73.90
14188;DHT22;7175;51.978;5.330;2022-09-03T08:15:35;20.40;73.00
14188;DHT22;7175;51.978;5.330;2022-09-03T08:18:06;20.50;73.00
14188;DHT22;7175;51.978;5.330;2022-09-03T08:20:35;20.70;72.60
14188;DHT22;7175;51.978;5.330;2022-09-03T08:23:05;20.90;72.50
14188;DHT22;7175;51.978;5.330;2022-09-03T08:25:33;20.80;72.20
14188;DHT22;7175;51.978;5.330;2022-09-03T08:28:01;21.10;72.40
14188;DHT22;7175;51.978;5.330;2022-09-03T08:30:29;21.20;72.00
14188;DHT22;7175;51.978;5.330;2022-09-03T08:33:00;21.50;71.10
14188;DHT22;7175;51.978;5.330;2022-09-03T08:35:30;21.60;70.80
14188;DHT22;7175;51.978;5.330;2022-09-03T08:38:00;21.70;69.70
14188;DHT22;7175;51.978;5.330;2022-09-03T08:40:36;21.60;69.10
14188;DHT22;7175;51.978;5.330;2022-09-03T08:43:09;21.60;70.10
14188;DHT22;7175;51.978;5.330;2022-09-03T08:45:44;21.80;69.30
14188;DHT22;7175;51.978;5.330;2022-09-03T08:48:18;21.80;68.70
14188;DHT22;7175;51.978;5.330;2022-09-03T08:50:54;21.80;68.70
14188;DHT22;7175;51.978;5.330;2022-09-03T08:53:35;22.00;69.70
14188;DHT22;7175;51.978;5.330;2022-09-03T08:56:08;22.20;68.00
14188;DHT22;7175;51.978;5.330;2022-09-03T08:58:37;22.40;67.90
14188;DHT22;7175;51.978;5.330;2022-09-03T09:01:14;22.60;66.80
14188;DHT22;7175;51.978;5.330;2022-09-03T09:03:52;22.40;66.50
14188;DHT22;7175;51.978;5.330;2022-09-03T09:06:29;22.70;67.00
14188;DHT22;7175;51.978;5.330;2022-09-03T09:09:08;22.50;65.70
14188;DHT22;7175;51.978;5.330;2022-09-03T09:11:48;22.60;65.10
14188;DHT22;7175;51.978;5.330;2022-09-03T09:14:21;22.60;64.90
14188;DHT22;7175;51.978;5.330;2022-09-03T09:16:58;22.80;63.80
14188;DHT22;7175;51.978;5.330;2022-09-03T09:19:38;22.70;64.90
14188;DHT22;7175;51.978;5.330;2022-09-03T09:22:11;22.80;63.20
14188;DHT22;7175;51.978;5.330;2022-09-03T09:24:45;23.10;64.20
14188;DHT22;7175;51.978;5.330;2022-09-03T09:27:16;23.30;62.30
14188;DHT22;7175;51.978;5.330;2022-09-03T09:29:48;23.10;61.10
14188;DHT22;7175;51.978;5.330;2022-09-03T09:32:20;23.30;61.70
14188;DHT22;7175;51.978;5.330;2022-09-03T09:34:50;23.70;60.70
14188;DHT22;7175;51.978;5.330;2022-09-03T09:37:19;23.70;58.70
14188;DHT22;7175;51.978;5.330;2022-09-03T09:39:56;23.40;58.80
14188;DHT22;7175;51.978;5.330;2022-09-03T09:42:26;23.70;58.90
14188;DHT22;7175;51.978;5.330;2022-09-03T09:45:08;23.70;58.70
14188;DHT22;7175;51.978;5.330;2022-09-03T09:47:38;24.20;58.20
14188;DHT22;7175;51.978;5.330;2022-09-03T09:50:17;24.30;57.60
14188;DHT22;7175;51.978;5.330;2022-09-03T09:53:03;24.40;58.80
14188;DHT22;7175;51.978;5.330;2022-09-03T09:55:57;24.50;58.80
14188;DHT22;7175;51.978;5.330;2022-09-03T09:58:28;24.50;57.80
14188;DHT22;7175;51.978;5.330;2022-09-03T10:01:03;25.00;57.70
14188;DHT22;7175;51.978;5.330;2022-09-03T10:03:50;25.00;56.50
14188;DHT22;7175;51.978;5.330;2022-09-03T10:06:25;25.00;57.10
14188;DHT22;7175;51.978;5.330;2022-09-03T10:09:12;25.30;55.70
14188;DHT22;7175;51.978;5.330;2022-09-03T10:11:44;24.90;55.00
14188;DHT22;7175;51.978;5.330;2022-09-03T10:14:26;24.80;55.70
14188;DHT22;7175;51.978;5.330;2022-09-03T10:17:08;24.70;54.80
14188;DHT22;7175;51.978;5.330;2022-09-03T10:19:45;25.30;54.80
14188;DHT22;7175;51.978;5.330;2022-09-03T10:22:43;25.30;55.10
14188;DHT22;7175;51.978;5.330;2022-09-03T10:25:25;25.20;54.30
14188;DHT22;7175;51.978;5.330;2022-09-03T10:27:56;25.30;54.40
14188;DHT22;7175;51.978;5.330;2022-09-03T10:30:40;25.20;53.50
14188;DHT22;7175;51.978;5.330;2022-09-03T10:33:18;25.20;53.30
14188;DHT22;7175;51.978;5.330;2022-09-03T10:35:52;25.50;52.20
14188;DHT22;7175;51.978;5.330;2022-09-03T10:38:28;25.60;52.00
14188;DHT22;7175;51.978;5.330;2022-09-03T10:41:08;25.70;51.60
14188;DHT22;7175;51.978;5.330;2022-09-03T10:43:54;25.70;52.20
14188;DHT22;7175;51.978;5.330;2022-09-03T10:46:32;25.90;51.40
14188;DHT22;7175;51.978;5.330;2022-09-03T10:49:36;25.80;52.30
14188;DHT22;7175;51.978;5.330;2022-09-03T10:52:11;26.10;51.90
14188;DHT22;7175;51.978;5.330;2022-09-03T10:54:54;26.00;50.20
14188;DHT22;7175;51.978;5.330;2022-09-03T10:57:34;25.70;51.20
14188;DHT22;7175;51.978;5.330;2022-09-03T11:00:09;25.90;52.00
14188;DHT22;7175;51.978;5.330;2022-09-03T11:02:57;25.90;50.80
14188;DHT22;7175;51.978;5.330;2022-09-03T11:05:39;26.20;50.80
14188;DHT22;7175;51.978;5.330;2022-09-03T11:08:13;26.40;50.20
14188;DHT22;7175;51.978;5.330;2022-09-03T11:10:49;26.70;50.50
14188;DHT22;7175;51.978;5.330;2022-09-03T11:13:23;26.50;49.60
14188;DHT22;7175;51.978;5.330;2022-09-03T11:15:57;26.10;49.40
14188;DHT22;7175;51.978;5.330;2022-09-03T11:18:34;26.10;50.10
14188;DHT22;7175;51.978;5.330;2022-09-03T11:21:12;26.70;49.60
14188;DHT22;7175;51.978;5.330;2022-09-03T11:23:44;26.80;49.60
14188;DHT22;7175;51.978;5.330;2022-09-03T11:26:18;26.80;49.30
14188;DHT22;7175;51.978;5.330;2022-09-03T11:28:53;26.40;48.60
14188;DHT22;7175;51.978;5.330;2022-09-03T11:31:32;26.50;48.00
14188;DHT22;7175;51.978;5.330;2022-09-03T11:34:06;26.60;48.40
14188;DHT22;7175;51.978;5.330;2022-09-03T11:36:36;27.20;48.30
14188;DHT22;7175;51.978;5.330;2022-09-03T11:39:17;27.00;46.80
14188;DHT22;7175;51.978;5.330;2022-09-03T11:41:58;26.70;46.60
14188;DHT22;7175;51.978;5.330;2022-09-03T11:44:35;26.80;47.50
14188;DHT22;7175;51.978;5.330;2022-09-03T11:47:21;27.00;46.50
14188;DHT22;7175;51.978;5.330;2022-09-03T11:49:52;26.70;46.20
14188;DHT22;7175;51.978;5.330;2022-09-03T11:52:27;26.90;46.20
14188;DHT22;7175;51.978;5.330;2022-09-03T11:54:59;27.40;46.90
14188;DHT22;7175;51.978;5.330;2022-09-03T11:57:31;27.00;45.10
14188;DHT22;7175;51.978;5.330;2022-09-03T12:00:08;26.80;45.70
14188;DHT22;7175;51.978;5.330;2022-09-03T12:02:43;27.30;46.20
14188;DHT22;7175;51.978;5.330;2022-09-03T12:05:22;28.10;45.60
14188;DHT22;7175;51.978;5.330;2022-09-03T12:08:19;27.90;44.50
14188;DHT22;7175;51.978;5.330;2022-09-03T12:10:55;27.90;44.80
14188;DHT22;7175;51.978;5.330;2022-09-03T12:13:41;28.10;44.20
14188;DHT22;7175;51.978;5.330;2022-09-03T12:16:36;28.00;44.30
14188;DHT22;7175;51.978;5.330;2022-09-03T12:19:12;28.20;45.30
14188;DHT22;7175;51.978;5.330;2022-09-03T12:21:47;27.60;43.90
14188;DHT22;7175;51.978;5.330;2022-09-03T12:24:16;27.80;43.70
14188;DHT22;7175;51.978;5.330;2022-09-03T12:26:45;27.90;44.10
14188;DHT22;7175;51.978;5.330;2022-09-03T12:29:24;28.30;44.30
14188;DHT22;7175;51.978;5.330;2022-09-03T12:31:54;27.90;43.70
14188;DHT22;7175;51.978;5.330;2022-09-03T12:34:31;28.00;44.00
14188;DHT22;7175;51.978;5.330;2022-09-03T12:37:00;28.50;42.70
14188;DHT22;7175;51.978;5.330;2022-09-03T12:39:37;28.20;42.50
14188;DHT22;7175;51.978;5.330;2022-09-03T12:42:29;28.40;42.80
14188;DHT22;7175;51.978;5.330;2022-09-03T12:45:06;29.00;43.40
14188;DHT22;7175;51.978;5.330;2022-09-03T12:47:38;29.20;42.20
14188;DHT22;7175;51.978;5.330;2022-09-03T12:50:08;28.20;42.30
14188;DHT22;7175;51.978;5.330;2022-09-03T12:52:40;28.50;42.50
14188;DHT22;7175;51.978;5.330;2022-09-03T12:55:23;28.50;41.60
14188;DHT22;7175;51.978;5.330;2022-09-03T12:57:59;28.70;42.30
14188;DHT22;7175;51.978;5.330;2022-09-03T13:00:31;28.40;42.20
14188;DHT22;7175;51.978;5.330;2022-09-03T13:03:03;28.70;41.60
14188;DHT22;7175;51.978;5.330;2022-09-03T13:05:40;28.50;41.60
14188;DHT22;7175;51.978;5.330;2022-09-03T13:08:14;29.00;42.10
14188;DHT22;7175;51.978;5.330;2022-09-03T13:10:51;29.40;41.20
14188;DHT22;7175;51.978;5.330;2022-09-03T13:13:23;29.20;41.90
14188;DHT22;7175;51.978;5.330;2022-09-03T13:16:06;29.70;40.40
14188;DHT22;7175;51.978;5.330;2022-09-03T13:18:45;29.40;41.10
14188;DHT22;7175;51.978;5.330;2022-09-03T13:21:23;28.80;40.30
14188;DHT22;7175;51.978;5.330;2022-09-03T13:24:13;28.90;41.70
14188;DHT22;7175;51.978;5.330;2022-09-03T13:26:57;29.10;41.60
14188;DHT22;7175;51.978;5.330;2022-09-03T13:29:53;28.90;40.70
14188;DHT22;7175;51.978;5.330;2022-09-03T13:32:35;28.60;40.30
14188;DHT22;7175;51.978;5.330;2022-09-03T13:35:09;29.50;41.20
14188;DHT22;7175;51.978;5.330;2022-09-03T13:37:44;29.10;41.00
14188;DHT22;7175;51.978;5.330;2022-09-03T13:40:22;29.70;40.10
14188;DHT22;7175;51.978;5.330;2022-09-03T13:42:55;29.20;39.80
14188;DHT22;7175;51.978;5.330;2022-09-03T13:45:34;29.00;40.70
14188;DHT22;7175;51.978;5.330;2022-09-03T13:48:12;28.60;41.40
14188;DHT22;7175;51.978;5.330;2022-09-03T13:51:06;28.60;41.40
14188;DHT22;7175;51.978;5.330;2022-09-03T13:53:44;28.70;41.50
14188;DHT22;7175;51.978;5.330;2022-09-03T13:56:22;28.50;40.90
14188;DHT22;7175;51.978;5.330;2022-09-03T13:58:59;28.70;41.30
14188;DHT22;7175;51.978;5.330;2022-09-03T14:01:51;28.30;41.40
14188;DHT22;7175;51.978;5.330;2022-09-03T14:04:28;28.30;41.70
14188;DHT22;7175;51.978;5.330;2022-09-03T14:07:07;29.20;41.30
14188;DHT22;7175;51.978;5.330;2022-09-03T14:09:41;28.80;42.50
14188;DHT22;7175;51.978;5.330;2022-09-03T14:12:18;28.20;41.10
14188;DHT22;7175;51.978;5.330;2022-09-03T14:14:53;28.40;41.50
14188;DHT22;7175;51.978;5.330;2022-09-03T14:17:31;28.30;41.70
14188;DHT22;7175;51.978;5.330;2022-09-03T14:20:11;28.00;42.20
14188;DHT22;7175;51.978;5.330;2022-09-03T14:22:47;28.10;42.20
14188;DHT22;7175;51.978;5.330;2022-09-03T14:25:19;28.20;42.70
14188;DHT22;7175;51.978;5.330;2022-09-03T14:27:47;28.20;42.20
14188;DHT22;7175;51.978;5.330;2022-09-03T14:30:24;27.80;42.60
14188;DHT22;7175;51.978;5.330;2022-09-03T14:33:05;28.10;43.60
14188;DHT22;7175;51.978;5.330;2022-09-03T14:35:54;27.90;42.00
14188;DHT22;7175;51.978;5.330;2022-09-03T14:41:54;27.70;43.80
14188;DHT22;7175;51.978;5.330;2022-09-03T14:44:44;27.60;42.40
14188;DHT22;7175;51.978;5.330;2022-09-03T14:47:33;27.40;41.30
14188;DHT22;7175;51.978;5.330;2022-09-03T14:50:18;27.10;41.00
14188;DHT22;7175;51.978;5.330;2022-09-03T14:53:09;27.10;41.00
14188;DHT22;7175;51.978;5.330;2022-09-03T14:56:13;27.00;41.40
14188;DHT22;7175;51.978;5.330;2022-09-03T14:59:03;27.10;42.80
14188;DHT22;7175;51.978;5.330;2022-09-03T15:01:36;27.00;42.80
14188;DHT22;7175;51.978;5.330;2022-09-03T15:04:42;27.10;44.30
14188;DHT22;7175;51.978;5.330;2022-09-03T15:07:23;27.10;43.10
14188;DHT22;7175;51.978;5.330;2022-09-03T15:10:03;26.90;42.10
14188;DHT22;7175;51.978;5.330;2022-09-03T15:12:38;26.90;43.90
14188;DHT22;7175;51.978;5.330;2022-09-03T15:15:15;27.00;40.70
14188;DHT22;7175;51.978;5.330;2022-09-03T15:17:55;26.90;41.80
14188;DHT22;7175;51.978;5.330;2022-09-03T15:20:35;26.90;42.60
14188;DHT22;7175;51.978;5.330;2022-09-03T15:23:28;26.80;42.40
14188;DHT22;7175;51.978;5.330;2022-09-03T15:26:34;26.70;43.00
14188;DHT22;7175;51.978;5.330;2022-09-03T15:29:34;26.60;41.80
14188;DHT22;7175;51.978;5.330;2022-09-03T15:32:15;26.70;42.10
14188;DHT22;7175;51.978;5.330;2022-09-03T15:35:02;26.60;41.70
14188;DHT22;7175;51.978;5.330;2022-09-03T15:37:41;26.60;41.90
14188;DHT22;7175;51.978;5.330;2022-09-03T15:40:23;26.60;42.50
14188;DHT22;7175;51.978;5.330;2022-09-03T15:43:04;26.50;42.20
14188;DHT22;7175;51.978;5.330;2022-09-03T15:45:38;26.50;42.50
14188;DHT22;7175;51.978;5.330;2022-09-03T15:48:16;26.50;43.50
14188;DHT22;7175;51.978;5.330;2022-09-03T15:50:51;26.60;44.00
14188;DHT22;7175;51.978;5.330;2022-09-03T15:53:28;26.50;43.10
14188;DHT22;7175;51.978;5.330;2022-09-03T15:56:17;26.50;43.90
14188;DHT22;7175;51.978;5.330;2022-09-03T15:58:54;26.40;43.70
14188;DHT22;7175;51.978;5.330;2022-09-03T16:01:31;26.50;44.80
14188;DHT22;7175;51.978;5.330;2022-09-03T16:04:09;26.50;44.20
14188;DHT22;7175;51.978;5.330;2022-09-03T16:06:49;26.60;44.30
14188;DHT22;7175;51.978;5.330;2022-09-03T16:09:24;26.40;44.60
14188;DHT22;7175;51.978;5.330;2022-09-03T16:12:00;26.40;43.10
14188;DHT22;7175;51.978;5.330;2022-09-03T16:14:38;26.30;44.00
14188;DHT22;7175;51.978;5.330;2022-09-03T16:17:18;26.30;43.50
14188;DHT22;7175;51.978;5.330;2022-09-03T16:19:54;26.30;42.50
14188;DHT22;7175;51.978;5.330;2022-09-03T16:22:26;26.30;42.70
14188;DHT22;7175;51.978;5.330;2022-09-03T16:25:00;26.20;43.40
14188;DHT22;7175;51.978;5.330;2022-09-03T16:27:32;26.20;43.20
14188;DHT22;7175;51.978;5.330;2022-09-03T16:30:08;26.20;43.60
14188;DHT22;7175;51.978;5.330;2022-09-03T16:32:54;26.20;44.20
14188;DHT22;7175;51.978;5.330;2022-09-03T16:35:33;26.20;44.90
14188;DHT22;7175;51.978;5.330;2022-09-03T16:38:23;26.10;45.20
14188;DHT22;7175;51.978;5.330;2022-09-03T16:40:58;26.10;45.10
14188;DHT22;7175;51.978;5.330;2022-09-03T16:43:32;26.10;44.90
14188;DHT22;7175;51.978;5.330;2022-09-03T16:46:18;26.10;45.40
14188;DHT22;7175;51.978;5.330;2022-09-03T16:48:57;26.00;45.40